Time;durP1;ratioP1;P1;durP2;ratioP2;P2;SDS_P1;SDS_P2;PMS_P1;PMS_P2;Temp;Humidity;BMP_temperature;BMP_pressure;BME280_temperature;BME280_humidity;BME280_pressure;Samples;Min_cycle;Max_cycle;Signal;HPM_P1;HPM_P2
2021/08/14 00:00:21;;;;;;;;;;;;;;;-142.75;65.87;77062.44;5030475;28;19923;-77
2021/08/14 00:02:46;;;;;;;;;;;;;;;-142.75;65.96;77062.44;5030300;28;19917;-77
2021/08/14 00:05:11;;;;;;;;;;;;;;;-142.75;66.06;77058.50;5030627;28;19921;-76
2021/08/14 00:07:37;;;;;;;;;;;;;;;-142.75;66.02;77050.63;5030271;28;19960;-77
2021/08/14 00:10:02;;;;;;;;;;;;;;;-142.75;65.84;77054.56;5029085;28;20397;-77
2021/08/14 00:12:27;;;;;;;;;;;;;;;-142.75;65.80;77034.88;5031772;28;19928;-76
2021/08/14 00:14:53;;;;;;;;;;;;;;;-142.75;65.66;77034.88;5044090;28;19954;-76
2021/08/14 00:17:19;;;;;;;;;;;;;;;-142.75;65.60;77036.84;5053685;28;19957;-77
2021/08/14 00:19:44;;;;;;;;;;;;;;;-142.75;65.75;77062.44;5053047;28;19916;-77
2021/08/14 00:22:09;;;;;;;;;;;;;;;-142.75;66.04;77068.34;5039685;28;19924;-78
2021/08/14 00:24:35;;;;;;;;;;;;;;;-142.75;66.08;77066.38;5042971;28;19982;-78
2021/08/14 00:27:00;;;;;;;;;;;;;;;-142.75;65.99;77084.09;5054360;28;19924;-77
2021/08/14 00:29:25;;;;;;;;;;;;;;;-142.75;66.19;77078.19;5055440;28;20433;-77
2021/08/14 00:31:50;;;;;;;;;;;;;;;-142.75;66.53;77070.31;5048437;28;19951;-76
2021/08/14 00:34:15;;;;;;;;;;;;;;;-142.75;66.67;77080.16;5033241;28;20035;-76
2021/08/14 00:36:40;;;;;;;;;;;;;;;-142.75;66.63;77074.25;5045652;28;19960;-76
2021/08/14 00:39:06;;;;;;;;;;;;;;;-142.75;66.70;77086.06;5052818;28;19917;-77
2021/08/14 00:41:31;;;;;;;;;;;;;;;-142.75;66.75;77086.06;5037028;28;19996;-77
2021/08/14 00:44:01;;;;;;;;;;;;;;;-142.75;66.85;77080.16;5042961;28;20071;-77
2021/08/14 00:46:26;;;;;;;;;;;;;;;-142.75;66.70;77074.25;5047736;28;19970;-76
2021/08/14 00:48:52;;;;;;;;;;;;;;;-142.75;66.84;77090.00;5033875;28;19917;-77
2021/08/14 00:51:17;;;;;;;;;;;;;;;-142.75;67.34;77068.34;5052601;28;19920;-76
2021/08/14 00:53:42;;;;;;;;;;;;;;;-142.75;67.70;77090.00;5047050;28;19924;-76
2021/08/14 00:56:07;;;;;;;;;;;;;;;-142.75;67.78;77090.00;5032008;28;19917;-77
2021/08/14 00:58:33;;;;;;;;;;;;;;;-142.75;67.98;77086.06;5044695;28;20371;-77
2021/08/14 01:00:58;;;;;;;;;;;;;;;-142.75;67.85;77072.28;5052458;28;19917;-76
2021/08/14 01:03:25;;;;;;;;;;;;;;;-142.75;67.70;77070.31;5052864;28;20398;-76
2021/08/14 01:05:50;;;;;;;;;;;;;;;-142.75;67.46;77070.31;5053047;28;19939;-76
2021/08/14 01:08:16;;;;;;;;;;;;;;;-142.75;67.09;77042.75;5052657;28;19917;-77
2021/08/14 01:10:42;;;;;;;;;;;;;;;-142.75;67.17;77054.56;5054850;28;19923;-78
2021/08/14 01:13:07;;;;;;;;;;;;;;;-142.75;67.13;77034.88;5054894;28;19917;-77
2021/08/14 01:15:32;;;;;;;;;;;;;;;-142.75;67.06;77052.59;5045211;28;19917;-77
2021/08/14 01:20:38;;;;;;;;;;;;;;;-142.75;67.24;77050.63;5081099;28;19935;-79
2021/08/14 01:23:04;;;;;;;;;;;;;;;-142.75;67.50;77048.66;5083261;28;20424;-77
2021/08/14 01:25:29;;;;;;;;;;;;;;;-142.75;67.46;77046.69;5082244;28;19959;-77
2021/08/14 01:27:54;;;;;;;;;;;;;;;-142.75;67.68;77042.75;5081955;28;19923;-77
2021/08/14 01:30:19;;;;;;;;;;;;;;;-142.75;67.73;77048.66;5084543;28;19962;-77
2021/08/14 01:32:45;;;;;;;;;;;;;;;-142.75;67.60;77044.72;5079894;28;19938;-78
2021/08/14 01:35:10;;;;;;;;;;;;;;;-142.75;67.77;77050.63;5076157;28;19920;-76
2021/08/14 01:37:35;;;;;;;;;;;;;;;-142.75;67.55;77046.69;5084808;28;19916;-79
2021/08/14 01:40:00;;;;;;;;;;;;;;;-142.75;67.67;77038.81;5077694;28;20456;-80
2021/08/14 01:42:26;;;;;;;;;;;;;;;-142.75;67.47;77040.78;5081350;28;19942;-77
2021/08/14 01:44:51;;;;;;;;;;;;;;;-142.75;67.52;77046.69;5082722;28;19951;-77
2021/08/14 01:47:17;;;;;;;;;;;;;;;-142.75;67.50;77054.56;5073141;28;20397;-77
2021/08/14 01:49:42;;;;;;;;;;;;;;;-142.75;67.76;77050.63;5079837;28;19921;-78
2021/08/14 01:52:08;;;;;;;;;;;;;;;-142.75;68.00;77054.56;5079712;28;19991;-78
2021/08/14 01:54:33;;;;;;;;;;;;;;;-142.75;67.96;77058.50;5084145;28;19922;-78
2021/08/14 01:56:58;;;;;;;;;;;;;;;-142.75;68.13;77054.56;5080317;28;19916;-78
2021/08/14 01:59:24;;;;;;;;;;;;;;;-142.75;68.28;77062.44;5079538;28;19916;-78
2021/08/14 02:01:49;;;;;;;;;;;;;;;-142.75;68.40;77068.34;5090071;28;19916;-76
2021/08/14 02:04:14;;;;;;;;;;;;;;;-142.75;68.69;77064.41;5083597;28;20015;-78
2021/08/14 02:06:39;;;;;;;;;;;;;;;-142.75;68.82;77064.41;5082435;28;20475;-77
2021/08/14 02:09:05;;;;;;;;;;;;;;;-142.75;69.05;77070.31;5084493;28;19916;-78
2021/08/14 02:11:34;;;;;;;;;;;;;;;-142.75;69.27;77070.31;5082183;28;19922;-78
2021/08/14 02:13:59;;;;;;;;;;;;;;;-142.75;69.41;77066.38;5087207;28;19916;-78
2021/08/14 02:16:25;;;;;;;;;;;;;;;-142.75;69.45;77068.34;5076286;28;19928;-77
2021/08/14 02:18:50;;;;;;;;;;;;;;;-142.75;69.54;77062.44;5082320;28;19916;-78
2021/08/14 02:21:16;;;;;;;;;;;;;;;-142.75;69.42;77068.34;5079020;28;20401;-78
2021/08/14 02:23:41;;;;;;;;;;;;;;;-142.75;69.56;77070.31;5078351;28;19917;-78
2021/08/14 02:26:07;;;;;;;;;;;;;;;-142.75;69.43;77066.38;5077228;28;19920;-79
2021/08/14 02:28:32;;;;;;;;;;;;;;;-142.75;69.52;77066.38;5088228;28;19927;-78
2021/08/14 02:30:58;;;;;;;;;;;;;;;-142.75;69.38;77068.34;5081807;28;20112;-77
2021/08/14 02:33:24;;;;;;;;;;;;;;;-142.75;69.56;77066.38;5073260;28;19916;-78
2021/08/14 02:35:49;;;;;;;;;;;;;;;-142.75;69.16;77050.63;5079560;28;20023;-77
2021/08/14 02:38:14;;;;;;;;;;;;;;;-142.75;69.30;77068.34;5079250;28;19916;-78
2021/08/14 02:40:40;;;;;;;;;;;;;;;-142.75;69.32;77066.38;5086534;28;20402;-77
2021/08/14 02:43:05;;;;;;;;;;;;;;;-142.75;69.42;77072.28;5077409;28;19932;-78
2021/08/14 02:45:31;;;;;;;;;;;;;;;-142.75;69.50;77066.38;5083037;28;19927;-77
2021/08/14 02:47:56;;;;;;;;;;;;;;;-142.75;69.26;77066.38;5083702;28;19923;-78
2021/08/14 02:50:22;;;;;;;;;;;;;;;-142.75;69.15;77064.41;5082164;28;19920;-78
2021/08/14 02:52:47;;;;;;;;;;;;;;;-142.75;69.22;77068.34;5084095;28;20472;-77
2021/08/14 02:55:13;;;;;;;;;;;;;;;-142.75;69.44;77086.06;5085640;28;19918;-77
2021/08/14 02:57:38;;;;;;;;;;;;;;;-142.75;69.44;77088.03;5076822;28;19916;-78
2021/08/14 03:00:03;;;;;;;;;;;;;;;-142.75;69.05;77058.50;5078157;28;20087;-78
2021/08/14 03:02:28;;;;;;;;;;;;;;;-142.75;69.08;77070.31;5085291;28;20393;-78
2021/08/14 03:04:54;;;;;;;;;;;;;;;-142.75;68.62;77076.22;5079699;28;19974;-78
2021/08/14 03:07:19;;;;;;;;;;;;;;;-142.75;68.50;77074.25;5070672;28;20354;-77
2021/08/14 03:09:44;;;;;;;;;;;;;;;-142.75;68.31;77078.19;5088143;28;19916;-77
2021/08/14 03:12:09;;;;;;;;;;;;;;;-142.75;68.29;77078.19;5071159;28;19920;-77
2021/08/14 03:14:38;;;;;;;;;;;;;;;-142.75;68.61;77082.13;5073984;28;20336;-78
2021/08/14 03:17:03;;;;;;;;;;;;;;;-142.75;68.71;77091.97;5072132;28;19928;-78
2021/08/14 03:19:28;;;;;;;;;;;;;;;-142.75;69.02;77101.81;5082215;28;19920;-78
2021/08/14 03:21:53;;;;;;;;;;;;;;;-142.75;69.10;77091.97;5076849;28;20355;-77
2021/08/14 03:24:18;;;;;;;;;;;;;;;-142.75;69.03;77097.88;5078852;28;19974;-78
2021/08/14 03:26:43;;;;;;;;;;;;;;;-142.75;68.92;77101.81;5080519;28;19920;-77
2021/08/14 03:29:09;;;;;;;;;;;;;;;-142.75;68.78;77119.53;5085226;28;19924;-77
2021/08/14 03:31:34;;;;;;;;;;;;;;;-142.75;68.86;77105.75;5084574;28;20010;-78
2021/08/14 03:33:59;;;;;;;;;;;;;;;-142.75;68.76;77107.72;5078441;28;19916;-78
2021/08/14 03:36:24;;;;;;;;;;;;;;;-142.75;68.69;77109.69;5083400;28;19916;-77
2021/08/14 03:38:49;;;;;;;;;;;;;;;-142.75;68.73;77117.56;5087106;28;19928;-78
2021/08/14 03:41:15;;;;;;;;;;;;;;;-142.75;69.17;77121.50;5086230;28;19916;-77
2021/08/14 03:43:40;;;;;;;;;;;;;;;-142.75;69.33;77133.31;5085507;28;20005;-78
2021/08/14 03:46:05;;;;;;;;;;;;;;;-142.75;69.48;77133.31;5079170;28;19920;-77
2021/08/14 03:48:31;;;;;;;;;;;;;;;-142.75;69.74;77147.09;5080998;28;20302;-78
2021/08/14 03:50:58;;;;;;;;;;;;;;;-142.75;69.84;77139.22;5079365;28;21240;-77
2021/08/14 03:53:23;;;;;;;;;;;;;;;-142.75;70.00;77147.09;5081287;28;20046;-77
2021/08/14 03:55:49;;;;;;;;;;;;;;;-142.75;69.92;77137.25;5083437;28;20503;-77
2021/08/14 03:58:14;;;;;;;;;;;;;;;-142.75;70.23;77145.13;5073685;28;19916;-77
2021/08/14 04:00:39;;;;;;;;;;;;;;;-142.75;70.37;77153.00;5071681;28;19920;-77
2021/08/14 04:03:05;;;;;;;;;;;;;;;-142.75;70.36;77143.16;5085449;28;19995;-77
2021/08/14 04:05:30;;;;;;;;;;;;;;;-142.75;70.38;77149.06;5076364;28;19931;-77
2021/08/14 04:07:55;;;;;;;;;;;;;;;-142.75;70.26;77143.16;5077613;28;19916;-76
2021/08/14 04:10:20;;;;;;;;;;;;;;;-142.75;69.89;77137.25;5076945;28;19916;-78
2021/08/14 04:12:46;;;;;;;;;;;;;;;-142.75;69.78;77145.13;5084735;28;19916;-77
2021/08/14 04:15:11;;;;;;;;;;;;;;;-142.75;69.73;77137.25;5080323;28;19924;-76
2021/08/14 04:17:36;;;;;;;;;;;;;;;-142.75;69.57;77137.25;5078959;28;19917;-77
2021/08/14 04:20:02;;;;;;;;;;;;;;;-142.75;69.50;77141.19;5080174;28;19928;-80
2021/08/14 04:22:28;;;;;;;;;;;;;;;-142.75;69.51;77156.94;5081900;28;19917;-77
2021/08/14 04:24:53;;;;;;;;;;;;;;;-142.75;69.69;77168.75;5080627;28;20013;-77
2021/08/14 04:27:18;;;;;;;;;;;;;;;-142.75;69.69;77176.63;5077765;28;19939;-77
2021/08/14 04:29:44;;;;;;;;;;;;;;;-142.75;69.81;77178.59;5074338;28;20061;-77
2021/08/14 04:32:09;;;;;;;;;;;;;;;-142.75;70.04;77180.56;5072171;28;19920;-77
2021/08/14 04:34:34;;;;;;;;;;;;;;;-142.75;70.39;77196.31;5080183;28;19924;-77
2021/08/14 04:36:59;;;;;;;;;;;;;;;-142.75;70.68;77200.25;5081699;28;19920;-77
2021/08/14 04:39:24;;;;;;;;;;;;;;;-142.75;71.12;77210.09;5083066;28;19923;-77
2021/08/14 04:41:50;;;;;;;;;;;;;;;-142.75;71.29;77198.28;5076118;28;19923;-77
2021/08/14 04:44:15;;;;;;;;;;;;;;;-142.75;71.30;77192.38;5081117;28;19936;-78
2021/08/14 04:46:40;;;;;;;;;;;;;;;-142.75;70.94;77182.53;5079624;28;19920;-78
2021/08/14 04:49:05;;;;;;;;;;;;;;;-142.75;71.08;77184.50;5083700;28;19963;-78
2021/08/14 04:51:31;;;;;;;;;;;;;;;-142.75;70.84;77178.59;5079833;28;20266;-76
2021/08/14 04:53:56;;;;;;;;;;;;;;;-142.75;71.10;77190.41;5072827;28;20404;-79
2021/08/14 04:56:22;;;;;;;;;;;;;;;-142.75;71.40;77184.50;5071042;28;19916;-77
2021/08/14 04:58:47;;;;;;;;;;;;;;;-142.75;71.10;77166.78;5077985;28;19916;-77
2021/08/14 05:01:12;;;;;;;;;;;;;;;-142.75;70.58;77158.91;5080735;28;19927;-77
2021/08/14 05:03:37;;;;;;;;;;;;;;;-142.75;70.48;77149.06;5083629;28;19928;-78
2021/08/14 05:06:03;;;;;;;;;;;;;;;-142.75;70.21;77145.13;5091614;28;19969;-76
2021/08/14 05:08:28;;;;;;;;;;;;;;;-142.75;70.35;77174.66;5082276;28;19916;-77
2021/08/14 05:10:53;;;;;;;;;;;;;;;-142.75;70.30;77135.28;5080551;28;19916;-79
2021/08/14 05:13:18;;;;;;;;;;;;;;;-142.75;70.53;77153.00;5084747;28;19924;-77
2021/08/14 05:15:43;;;;;;;;;;;;;;;-142.75;70.50;77121.50;5086137;28;20341;-78
2021/08/14 05:18:09;;;;;;;;;;;;;;;-142.75;70.09;77121.50;5086011;28;19916;-77
2021/08/14 05:20:34;;;;;;;;;;;;;;;-142.75;69.82;77103.78;5086495;28;19958;-78
2021/08/14 05:22:59;;;;;;;;;;;;;;;-142.75;69.56;77091.97;5087060;28;19924;-77
2021/08/14 05:25:26;;;;;;;;;;;;;;;-142.75;69.28;77109.69;5074458;28;20297;-77
2021/08/14 05:27:51;;;;;;;;;;;;;;;-142.75;69.01;77090.00;5087362;28;20397;-78
2021/08/14 05:30:16;;;;;;;;;;;;;;;-142.75;69.35;77103.78;5078282;28;19993;-77
2021/08/14 05:32:42;;;;;;;;;;;;;;;-142.75;69.40;77101.81;5080291;28;19924;-77
2021/08/14 05:35:07;;;;;;;;;;;;;;;-142.75;69.77;77111.66;5083476;28;19924;-78
2021/08/14 05:37:32;;;;;;;;;;;;;;;-142.75;69.96;77103.78;5086221;28;19957;-77
2021/08/14 05:39:57;;;;;;;;;;;;;;;-142.75;69.90;77091.97;5082071;28;19955;-78
2021/08/14 05:42:23;;;;;;;;;;;;;;;-142.75;69.81;77105.75;5078743;28;20365;-78
2021/08/14 05:44:48;;;;;;;;;;;;;;;-142.75;69.82;77088.03;5079878;28;19921;-78
2021/08/14 05:47:13;;;;;;;;;;;;;;;-142.75;69.78;77082.13;5081362;28;19916;-78
2021/08/14 05:49:38;;;;;;;;;;;;;;;-142.75;69.66;77080.16;5080667;28;20385;-77
2021/08/14 05:52:05;;;;;;;;;;;;;;;-142.75;69.50;77052.59;5085573;28;19923;-78
2021/08/14 05:54:31;;;;;;;;;;;;;;;-142.75;69.31;77034.88;5089047;28;20317;-78
2021/08/14 05:56:56;;;;;;;;;;;;;;;-142.75;69.10;77021.09;5085715;28;19916;-78
2021/08/14 05:59:22;;;;;;;;;;;;;;;-142.75;68.77;77011.25;5080132;28;19943;-78
2021/08/14 06:01:47;;;;;;;;;;;;;;;-142.75;68.75;77007.31;5086575;28;19959;-77
2021/08/14 06:04:12;;;;;;;;;;;;;;;-142.75;68.62;76987.63;5074901;28;19924;-77
2021/08/14 06:06:46;;;;;;;;;;;;;;;-142.75;68.55;76999.44;5078353;28;19917;-78
2021/08/14 06:09:12;;;;;;;;;;;;;;;-142.75;68.37;76971.88;5078006;28;20044;-77
2021/08/14 06:11:37;;;;;;;;;;;;;;;-142.75;68.07;76967.94;5082721;28;19923;-77
2021/08/14 06:14:02;;;;;;;;;;;;;;;-142.75;67.56;76956.13;5084001;28;19920;-78
2021/08/14 06:16:27;;;;;;;;;;;;;;;-142.75;67.16;76928.56;5075621;28;19917;-77
2021/08/14 06:18:53;;;;;;;;;;;;;;;-142.75;67.56;76960.06;5083433;28;19923;-78
2021/08/14 06:21:18;;;;;;;;;;;;;;;-142.75;67.68;76940.38;5082059;28;20281;-78
2021/08/14 06:23:43;;;;;;;;;;;;;;;-142.75;67.54;76932.50;5078988;28;20003;-77
2021/08/14 06:26:08;;;;;;;;;;;;;;;-142.75;67.27;76914.78;5084690;28;19977;-78
2021/08/14 06:28:33;;;;;;;;;;;;;;;-142.75;67.70;76932.50;5086853;28;19931;-78
2021/08/14 06:30:58;;;;;;;;;;;;;;;-142.75;67.82;76928.56;5081864;28;19925;-77
2021/08/14 06:33:24;;;;;;;;;;;;;;;-142.75;68.10;76912.81;5080000;28;19923;-77
2021/08/14 06:35:49;;;;;;;;;;;;;;;-142.75;67.99;76901.00;5080899;28;19916;-77
2021/08/14 06:38:14;;;;;;;;;;;;;;;-142.75;67.53;76891.16;5083137;28;20026;-78
2021/08/14 06:40:39;;;;;;;;;;;;;;;-142.75;67.25;76871.47;5083988;28;19924;-77
2021/08/14 06:43:04;;;;;;;;;;;;;;;-142.75;67.13;76873.44;5082900;28;19938;-77
2021/08/14 06:45:30;;;;;;;;;;;;;;;-142.75;67.18;76863.59;5085730;28;19924;-79
2021/08/14 06:47:55;;;;;;;;;;;;;;;-142.75;67.44;76869.50;5084590;28;20454;-78
2021/08/14 06:50:20;;;;;;;;;;;;;;;-142.75;68.10;76873.44;5080685;28;19938;-80
2021/08/14 06:52:45;;;;;;;;;;;;;;;-142.75;67.63;76853.75;5075805;28;20587;-78
2021/08/14 06:55:10;;;;;;;;;;;;;;;-142.75;67.75;76859.66;5073342;28;20378;-78
2021/08/14 06:57:36;;;;;;;;;;;;;;;-142.75;67.73;76847.84;5077137;28;19916;-77
2021/08/14 07:00:03;;;;;;;;;;;;;;;-142.75;67.29;76830.13;5079903;28;19917;-78
2021/08/14 07:02:28;;;;;;;;;;;;;;;-142.75;66.45;76814.38;5084131;28;20003;-76
2021/08/14 07:04:54;;;;;;;;;;;;;;;-142.75;66.17;76806.50;5077897;28;20375;-76
2021/08/14 07:07:19;;;;;;;;;;;;;;;-142.75;66.21;76822.25;5084747;28;19917;-77
2021/08/14 07:09:44;;;;;;;;;;;;;;;-142.75;66.44;76826.19;5077268;28;19940;-77
2021/08/14 07:12:10;;;;;;;;;;;;;;;-142.75;66.29;76832.09;5085870;28;19924;-78
2021/08/14 07:14:35;;;;;;;;;;;;;;;-142.75;66.18;76832.09;5070206;28;19916;-77
2021/08/14 07:17:00;;;;;;;;;;;;;;;-142.75;66.11;76830.13;5084622;28;19920;-78
2021/08/14 07:19:25;;;;;;;;;;;;;;;-142.75;66.00;76810.44;5074392;28;19955;-79
2021/08/14 07:21:51;;;;;;;;;;;;;;;-142.75;66.16;76822.25;5075224;28;20019;-78
2021/08/14 07:24:16;;;;;;;;;;;;;;;-142.75;66.08;76802.56;5083987;28;20369;-76
2021/08/14 07:26:41;;;;;;;;;;;;;;;-142.75;65.94;76806.50;5081034;28;19916;-77
2021/08/14 07:29:06;;;;;;;;;;;;;;;-142.75;66.17;76808.50;5073619;28;19923;-77
2021/08/14 07:31:31;;;;;;;;;;;;;;;-142.75;65.71;76780.94;5079169;28;19920;-77
2021/08/14 07:33:56;;;;;;;;;;;;;;;-142.75;65.50;76790.78;5082758;28;20019;-77
2021/08/14 07:36:22;;;;;;;;;;;;;;;-142.75;64.95;76790.78;5079021;28;19943;-77
2021/08/14 07:38:47;;;;;;;;;;;;;;;-142.75;65.35;76798.66;5078637;28;19916;-77
2021/08/14 07:41:12;;;;;;;;;;;;;;;-142.75;65.90;76798.66;5077798;28;19958;-77
2021/08/14 07:43:37;;;;;;;;;;;;;;;-142.75;65.74;76788.81;5076133;28;19920;-77
2021/08/14 07:46:02;;;;;;;;;;;;;;;-142.75;65.58;76788.81;5068735;28;20296;-77
2021/08/14 07:48:28;;;;;;;;;;;;;;;-142.75;65.48;76775.03;5069076;28;19916;-77
2021/08/14 07:50:53;;;;;;;;;;;;;;;-142.75;65.60;76767.16;5077984;28;19916;-77
2021/08/14 07:53:18;;;;;;;;;;;;;;;-142.75;65.25;76753.38;5079766;28;19939;-78
2021/08/14 07:55:43;;;;;;;;;;;;;;;-142.75;64.65;76729.75;5081134;28;20369;-77
2021/08/14 07:58:12;;;;;;;;;;;;;;;-142.75;64.08;76696.28;5075329;28;20003;-77
2021/08/14 08:00:37;;;;;;;;;;;;;;;-142.75;64.22;76670.69;5077722;28;19930;-76
2021/08/14 08:03:02;;;;;;;;;;;;;;;-142.75;63.56;76625.41;5083325;28;19920;-77
2021/08/14 08:05:28;;;;;;;;;;;;;;;-142.75;61.81;76586.03;5078320;28;19920;-75
2021/08/14 08:07:53;;;;;;;;;;;;;;;-142.75;60.55;76546.66;5075876;28;20298;-78
2021/08/14 08:10:20;;;;;;;;;;;;;;;-142.75;59.66;76507.31;5074707;28;20001;-76
2021/08/14 08:12:45;;;;;;;;;;;;;;;-142.75;59.67;76436.44;5081666;28;20397;-78
2021/08/14 08:15:11;;;;;;;;;;;;;;;-142.75;57.57;76440.38;5099287;22;20912;-75
2021/08/14 08:17:36;;;;;;;;;;;;;;;-142.75;56.85;76432.50;5078513;28;19935;-76
2021/08/14 08:20:05;;;;;;;;;;;;;;;-142.75;57.20;76406.91;5073817;28;19916;-76
2021/08/14 08:22:31;;;;;;;;;;;;;;;-142.75;55.73;76365.56;5079364;28;19920;-75
2021/08/14 08:24:56;;;;;;;;;;;;;;;-142.75;55.59;76357.69;5083721;28;19946;-75
2021/08/14 08:27:22;;;;;;;;;;;;;;;-142.75;54.88;76391.16;5069152;28;19916;-75
2021/08/14 08:29:48;;;;;;;;;;;;;;;-142.75;55.98;76414.78;5069261;28;19921;-74
2021/08/14 08:32:13;;;;;;;;;;;;;;;-142.75;56.61;76440.38;5069390;28;20335;-75
2021/08/14 08:34:38;;;;;;;;;;;;;;;-142.75;57.19;76444.31;5071487;28;19916;-75
2021/08/14 08:37:03;;;;;;;;;;;;;;;-142.75;57.45;76452.19;5073395;28;19917;-75
2021/08/14 08:39:31;;;;;;;;;;;;;;;-142.75;56.83;76473.84;5073833;28;19922;-73
2021/08/14 08:41:56;;;;;;;;;;;;;;;-142.75;56.98;76440.38;5071786;28;19916;-76
2021/08/14 08:44:22;;;;;;;;;;;;;;;-142.75;56.61;76456.13;5073141;28;19927;-76
2021/08/14 08:46:48;;;;;;;;;;;;;;;-142.75;57.27;76418.72;5073179;28;20332;-76
2021/08/14 08:49:14;;;;;;;;;;;;;;;-142.75;56.40;76404.94;5073110;28;19952;-74
2021/08/14 08:51:39;;;;;;;;;;;;;;;-142.75;56.30;76428.56;5071483;28;20397;-77
2021/08/14 08:54:04;;;;;;;;;;;;;;;-142.75;56.56;76363.59;5073310;28;19917;-76
2021/08/14 08:56:30;;;;;;;;;;;;;;;-142.75;55.25;76259.28;5071570;28;19924;-73
2021/08/14 08:58:55;;;;;;;;;;;;;;;-142.75;53.21;76160.88;5073023;28;19916;-75
2021/08/14 09:01:20;;;;;;;;;;;;;;;-142.75;52.28;76133.31;5073443;28;19921;-75
2021/08/14 09:03:46;;;;;;;;;;;;;;;-142.75;50.23;76178.59;5072821;28;19920;-74
2021/08/14 09:06:13;;;;;;;;;;;;;;;-142.75;50.41;76099.84;5073889;28;20008;-75
2021/08/14 09:08:38;;;;;;;;;;;;;;;-142.75;50.14;76101.81;5072616;28;19955;-77
2021/08/14 09:11:10;;;;;;;;;;;;;;;-142.75;50.82;76180.56;5074121;28;20402;-76
2021/08/14 09:13:36;;;;;;;;;;;;;;;-142.75;51.27;76050.66;5073796;28;19916;-75
2021/08/14 09:16:21;;;;;;;;;;;;;;;-142.75;49.36;76023.09;5073830;28;19917;-76
2021/08/14 09:18:56;;;;;;;;;;;;;;;-142.75;48.44;75952.25;5073981;28;19924;-76
2021/08/14 09:21:29;;;;;;;;;;;;;;;-142.75;48.78;75995.53;5073591;28;20006;-76
2021/08/14 09:23:54;;;;;;;;;;;;;;;-142.75;48.78;75985.69;5073661;28;19928;-76
2021/08/14 09:26:19;;;;;;;;;;;;;;;-142.75;48.00;76056.56;5073573;28;19924;-76
2021/08/14 09:28:44;;;;;;;;;;;;;;;-142.75;48.56;76001.44;5073612;28;20297;-75
2021/08/14 09:31:11;;;;;;;;;;;;;;;-142.75;47.56;75936.50;5073245;28;20385;-76
2021/08/14 09:33:37;;;;;;;;;;;;;;;-142.75;46.64;75895.16;5073784;28;19967;-76
2021/08/14 09:36:03;;;;;;;;;;;;;;;-142.75;45.87;75871.53;5073298;28;19954;-77
2021/08/14 09:38:39;;;;;;;;;;;;;;;-142.75;45.46;75930.59;5073504;28;20385;-75
2021/08/14 09:41:12;;;;;;;;;;;;;;;-142.75;46.48;75979.78;5072954;28;19916;-75
2021/08/14 09:43:37;;;;;;;;;;;;;;;-142.75;46.02;75857.78;5073219;28;19969;-75
2021/08/14 09:46:03;;;;;;;;;;;;;;;-142.75;45.15;75826.28;5070840;28;19928;-76
2021/08/14 09:48:28;;;;;;;;;;;;;;;-142.75;44.66;75891.22;5073306;28;20542;-75
2021/08/14 09:50:54;;;;;;;;;;;;;;;-142.75;45.78;75973.88;5071744;28;19917;-76
2021/08/14 09:53:19;;;;;;;;;;;;;;;-142.75;46.71;76032.94;5071841;28;20393;-72
2021/08/14 09:55:46;;;;;;;;;;;;;;;-142.75;47.74;76032.94;5073280;28;19916;-75
2021/08/14 09:58:13;;;;;;;;;;;;;;;-142.75;47.33;76019.16;5073000;28;19920;-76
2021/08/14 10:00:39;;;;;;;;;;;;;;;-142.75;47.81;75989.63;5072884;28;20401;-77
2021/08/14 10:03:05;;;;;;;;;;;;;;;-142.75;47.25;75987.66;5071445;28;19920;-76
2021/08/14 10:05:32;;;;;;;;;;;;;;;-142.75;46.21;75818.41;5072652;28;19974;-74
2021/08/14 10:07:58;;;;;;;;;;;;;;;-142.75;44.13;75792.81;5072961;28;19916;-76
2021/08/14 10:10:23;;;;;;;;;;;;;;;-142.75;43.44;75696.38;5071382;28;19923;-76
2021/08/14 10:12:49;;;;;;;;;;;;;;;-142.75;42.54;75777.06;5071414;28;19917;-75
2021/08/14 10:15:15;;;;;;;;;;;;;;;-142.75;43.43;75897.13;5072619;28;19917;-78
2021/08/14 10:17:40;;;;;;;;;;;;;;;-142.75;45.43;75901.06;5072637;28;19926;-76
2021/08/14 10:20:06;;;;;;;;;;;;;;;-142.75;44.98;75908.94;5072371;28;20405;-76
2021/08/14 10:22:31;;;;;;;;;;;;;;;-142.75;45.56;75954.22;5072593;28;19924;-75
2021/08/14 10:24:56;;;;;;;;;;;;;;;-142.75;45.00;75991.59;5071119;28;19920;-75
2021/08/14 10:27:22;;;;;;;;;;;;;;;-142.75;45.24;76048.69;5072378;28;19916;-78
2021/08/14 10:29:47;;;;;;;;;;;;;;;-142.75;45.56;76097.88;5071078;28;19916;-74
2021/08/14 10:32:32;;;;;;;;;;;;;;;-142.75;46.57;76125.44;5072252;28;20007;-76
2021/08/14 10:35:13;;;;;;;;;;;;;;;-142.75;46.74;76137.25;5072126;28;19995;-74
2021/08/14 10:37:39;;;;;;;;;;;;;;;-142.75;45.98;76090.00;5072322;28;19969;-77
2021/08/14 10:40:05;;;;;;;;;;;;;;;-142.75;46.10;76003.41;5072046;28;19917;-77
2021/08/14 10:42:49;;;;;;;;;;;;;;;-142.75;44.23;75912.88;5071063;28;19942;-75
2021/08/14 10:45:18;;;;;;;;;;;;;;;-142.75;43.59;75928.63;5070738;28;19920;-74
2021/08/14 10:47:45;;;;;;;;;;;;;;;-142.75;44.80;75989.63;5071963;28;20015;-75
2021/08/14 10:50:45;;;;;;;;;;;;;;;-142.75;44.49;75845.97;5071894;28;19962;-75
2021/08/14 10:53:11;;;;;;;;;;;;;;;-142.75;43.56;75621.59;5029554;28;19921;-76
2021/08/14 10:55:40;;;;;;;;;;;;;;;-142.75;39.50;75489.75;5058687;28;19969;-76
2021/08/14 10:58:22;;;;;;;;;;;;;;;-142.75;36.65;75359.88;5071561;28;19924;-75
2021/08/14 11:00:47;;;;;;;;;;;;;;;-142.75;34.87;75241.78;5070236;28;19916;-75
2021/08/14 11:03:13;;;;;;;;;;;;;;;-142.75;35.42;75310.66;5070227;28;19939;-74
2021/08/14 11:05:43;;;;;;;;;;;;;;;-142.75;36.05;75413.00;5071642;28;19928;-76
2021/08/14 11:08:22;;;;;;;;;;;;;;;-142.75;37.71;75633.41;5071779;28;19916;-78
2021/08/14 11:10:48;;;;;;;;;;;;;;;-142.75;38.13;75643.25;5070137;28;19916;-77
2021/08/14 11:13:37;;;;;;;;;;;;;;;-142.75;37.85;75771.16;5070322;28;19920;-76
2021/08/14 11:16:02;;;;;;;;;;;;;;;-142.75;39.80;75627.50;5070135;28;20336;-76
2021/08/14 11:18:46;;;;;;;;;;;;;;;-142.75;38.76;75605.84;5071870;28;20007;-76
2021/08/14 11:21:11;;;;;;;;;;;;;;;-142.75;37.29;75647.19;5071223;28;20297;-77
2021/08/14 11:23:55;;;;;;;;;;;;;;;-142.75;39.07;75727.88;5070019;28;19917;-75
2021/08/14 11:26:30;;;;;;;;;;;;;;;-142.75;39.06;75753.47;5071243;28;20018;-75
2021/08/14 11:28:55;;;;;;;;;;;;;;;-142.75;39.18;75704.25;5071442;28;19916;-76
2021/08/14 11:31:21;;;;;;;;;;;;;;;-142.75;39.19;75601.91;5070996;28;19972;-76
2021/08/14 11:33:46;;;;;;;;;;;;;;;-142.75;37.12;75442.50;5071293;28;20003;-75
2021/08/14 11:36:12;;;;;;;;;;;;;;;-142.75;35.04;75385.44;5069914;28;19916;-76
2021/08/14 11:38:43;;;;;;;;;;;;;;;-142.75;34.94;75361.84;5071262;28;19917;-76
2021/08/14 11:41:15;;;;;;;;;;;;;;;-142.75;33.21;75298.84;5071060;28;19923;-74
2021/08/14 11:43:41;;;;;;;;;;;;;;;-142.75;33.42;75281.16;5069838;28;19935;-76
2021/08/14 11:46:07;;;;;;;;;;;;;;;-142.75;33.82;75245.72;5071166;28;19917;-76
2021/08/14 11:48:43;;;;;;;;;;;;;;;-142.75;33.38;75218.19;5071273;28;19917;-75
2021/08/14 11:51:15;;;;;;;;;;;;;;;-142.75;33.64;75249.66;5070670;28;19925;-77
2021/08/14 11:53:40;;;;;;;;;;;;;;;-142.75;32.67;75226.06;5070929;28;19928;-77
2021/08/14 11:56:10;;;;;;;;;;;;;;;-142.75;33.55;75361.84;5071005;28;19916;-75
2021/08/14 11:58:35;;;;;;;;;;;;;;;-142.75;34.01;75383.47;5069843;28;19917;-76
2021/08/14 12:01:01;;;;;;;;;;;;;;;-142.75;34.65;75479.91;5069348;28;19926;-75
2021/08/14 12:03:26;;;;;;;;;;;;;;;-142.75;34.81;75507.47;5070584;28;19939;-75
2021/08/14 12:05:51;;;;;;;;;;;;;;;-142.75;34.97;75531.06;5070927;28;19923;-75
2021/08/14 12:08:28;;;;;;;;;;;;;;;-142.75;35.05;75570.44;5069724;28;20396;-76
2021/08/14 12:10:54;;;;;;;;;;;;;;;-142.75;36.54;75651.13;5074904;28;19916;-75
2021/08/14 12:13:21;;;;;;;;;;;;;;;-142.75;35.93;75706.22;5075017;28;20297;-76
2021/08/14 12:15:46;;;;;;;;;;;;;;;-142.75;37.02;75720.00;5074784;28;20298;-75
2021/08/14 12:18:12;;;;;;;;;;;;;;;-142.75;36.74;75731.81;5074969;28;19916;-76
2021/08/14 12:20:38;;;;;;;;;;;;;;;-142.75;37.15;75749.53;5074628;28;19916;-75
2021/08/14 12:23:19;;;;;;;;;;;;;;;-142.75;38.59;75763.28;5074665;28;20381;-75
2021/08/14 12:25:48;;;;;;;;;;;;;;;-142.75;38.11;75792.81;5073319;28;20343;-74